This is the latest recevied weather packets stored in our database for station/object IU2PLZ-12. If no packets are shown the sender has not sent any weather packets the latest 1 day(s).
| Time | Temp. | Humidity | Pressure | Rain* | Wind** | Luminosity | Snow |
|---|---|---|---|---|---|---|---|
| 1778103220 | 13.33° C | 78% | 992.9 hPa | - | - | - | - |
| 1778100519 | 13.89° C | 78% | 992.7 hPa | - | - | - | - |
| 1778098717 | 13.89° C | 77% | 992.6 hPa | - | - | - | - |
| 1778096916 | 13.33° C | 78% | 992.3 hPa | - | - | - | - |
| 1778094215 | 13.33° C | 77% | 992.3 hPa | - | - | - | - |
| 1778092415 | 13.33° C | 77% | 991.3 hPa | - | - | - | - |
| 1778087914 | 13.89° C | 77% | 990.3 hPa | - | - | - | - |
| 1778085213 | 12.78° C | 78% | 990 hPa | - | - | - | - |
| 1778084318 | 11.67° C | 80% | 989.8 hPa | - | - | - | - |
| 1778083413 | 12.22° C | 78% | 989.2 hPa | - | - | - | - |
| 1778078911 | 22.78° C | 58% | 988.8 hPa | - | - | - | - |
| 1778078011 | 23.89° C | 57% | 988.9 hPa | - | - | - | - |
| 1778074410 | 22.78° C | 61% | 989.9 hPa | - | - | - | - |
| 1778073510 | 23.89° C | 59% | 989.9 hPa | - | - | - | - |
| 1778069009 | 20° C | 75% | 990.6 hPa | - | - | - | - |
| 1778068109 | 18.89° C | 79% | 990.8 hPa | - | - | - | - |
| 1778065408 | 18.89° C | 79% | 990.9 hPa | - | - | - | - |
| 1778064508 | 18.33° C | 80% | 991 hPa | - | - | - | - |
| 1778060907 | 18.33° C | 81% | 991.1 hPa | - | - | - | - |
| 1778060007 | 17.78° C | 82% | 991.1 hPa | - | - | - | - |
| 1778059107 | 18.33° C | 80% | 990.9 hPa | - | - | - | - |
| 1778055506 | 15° C | 84% | 991.1 hPa | - | - | - | - |
| 1778054606 | 16.11° C | 83% | 990.7 hPa | - | - | - | - |
| 1778053706 | 16.11° C | 83% | 990.9 hPa | - | - | - | - |
| 1778052805 | 15.56° C | 85% | 991.1 hPa | - | - | - | - |
* Rain since midnight (hover to see other rain measurements)
** Current wind speed in m/s (hover to see current wind gust speed)